首页
METAR-TAF:

METAR-TAF

机场 :

哈米德·卡尔扎伊国际机场

喀布尔, 阿富汗

纬度: 34-38N, 经度: 069-12E, 海拔: 1789米

当前天气观测

该预报发布于41分钟前的14:50 UTC
风速6节,风向东转东南,在东转东北之间变化
温度 29°C
湿度 48%
气压 1012 hPa
能见度10公里或以上
1500米以下无云,无积雨云

METAR: OAKB 161450Z 11006KT 060V170 CAVOK 29/17 Q1012 NOSIG RMK A2991 BLU BLU

时间: 20:01 (15:31 UTC)

预报

该预报发布于4小时和26分钟前的11:05 UTC
预报有效从16日的 12点(UTC)到 17日的 12点(UTC)
风速12节,风向东转东北
能见度10公里或以上
少量云层高于5000英尺
短暂存在
从 16日的 12点(UTC)到 16日的 17点(UTC)
风速12节,风向,有时为22节阵风
成为
从 16日的 18点(UTC)到 16日的 20点(UTC)
风速2节,风向多变
能見度: 6000
几率 40%
从 17日的 00点(UTC)到 17日的 04点(UTC)
能見度: 5000
成为
从 17日的 08点(UTC)到 17日的 10点(UTC)
风速12节,风向

TAF: OAKB 161105Z 1612/1712 06012KT 9999 FEW050 TEMPO 1612/1617 09012G22KT BECMG 1618/1620 VRB02KT 6000 NSC PROB40 1700/1704 5000 HZ BECMG 1708/1710 36012KT

超过4000个机场的气象观测和天气预报(METAR&TAF报告)。

可查询的气象台以黄色和红色小点在地图上表示。

将鼠标移到小点上方,可查看气象台名称。

然后点击查看天气观测和预报。

如需切换地图:点击带黑十字的绿色按钮放大地图;点击带横线的绿色按钮缩小地图;或者点击绿色箭头查看邻近地区的地图。


METAR-TAF: